sensor_id;sensor_type;location;lat;lon;timestamp;temperature;humidity
34558;DHT22;24708;48.888;8.736;2022-09-09T05:30:30;15.00;99.90
34558;DHT22;24708;48.888;8.736;2022-09-09T05:32:58;15.10;99.90
34558;DHT22;24708;48.888;8.736;2022-09-09T05:35:25;15.10;99.90
34558;DHT22;24708;48.888;8.736;2022-09-09T05:37:52;15.20;99.90
34558;DHT22;24708;48.888;8.736;2022-09-09T05:40:20;15.30;99.90
34558;DHT22;24708;48.888;8.736;2022-09-09T05:42:48;15.30;99.90
34558;DHT22;24708;48.888;8.736;2022-09-09T05:45:15;15.30;99.90
34558;DHT22;24708;48.888;8.736;2022-09-09T05:47:43;15.50;99.90
34558;DHT22;24708;48.888;8.736;2022-09-09T05:50:10;15.50;99.90
34558;DHT22;24708;48.888;8.736;2022-09-09T05:52:37;15.60;99.90
34558;DHT22;24708;48.888;8.736;2022-09-09T05:55:05;15.60;99.90
34558;DHT22;24708;48.888;8.736;2022-09-09T05:57:34;15.60;99.90
34558;DHT22;24708;48.888;8.736;2022-09-09T06:00:02;15.60;99.90
34558;DHT22;24708;48.888;8.736;2022-09-09T06:02:29;15.60;99.90
34558;DHT22;24708;48.888;8.736;2022-09-09T06:04:57;15.80;99.90
34558;DHT22;24708;48.888;8.736;2022-09-09T06:07:26;16.00;99.90
34558;DHT22;24708;48.888;8.736;2022-09-09T06:09:54;16.30;99.90
34558;DHT22;24708;48.888;8.736;2022-09-09T06:12:21;16.90;99.90
34558;DHT22;24708;48.888;8.736;2022-09-09T06:14:48;17.20;99.90
34558;DHT22;24708;48.888;8.736;2022-09-09T06:17:17;18.20;99.90
34558;DHT22;24708;48.888;8.736;2022-09-09T06:19:44;19.30;99.90
34558;DHT22;24708;48.888;8.736;2022-09-09T06:22:12;20.10;99.90
34558;DHT22;24708;48.888;8.736;2022-09-09T06:24:39;20.20;99.90
34558;DHT22;24708;48.888;8.736;2022-09-09T06:27:07;20.20;99.90
34558;DHT22;24708;48.888;8.736;2022-09-09T06:29:34;20.00;99.90
34558;DHT22;24708;48.888;8.736;2022-09-09T06:32:03;20.50;99.90
34558;DHT22;24708;48.888;8.736;2022-09-09T06:34:30;21.80;99.90
34558;DHT22;24708;48.888;8.736;2022-09-09T06:36:57;22.40;99.90
34558;DHT22;24708;48.888;8.736;2022-09-09T06:39:25;22.10;99.90
34558;DHT22;24708;48.888;8.736;2022-09-09T06:41:52;21.40;99.90
34558;DHT22;24708;48.888;8.736;2022-09-09T06:44:20;20.50;99.90
34558;DHT22;24708;48.888;8.736;2022-09-09T06:46:47;20.00;99.90
34558;DHT22;24708;48.888;8.736;2022-09-09T06:49:15;19.60;99.90
34558;DHT22;24708;48.888;8.736;2022-09-09T06:51:42;19.10;99.90
34558;DHT22;24708;48.888;8.736;2022-09-09T06:54:11;19.00;99.90
34558;DHT22;24708;48.888;8.736;2022-09-09T06:56:40;19.20;99.90
34558;DHT22;24708;48.888;8.736;2022-09-09T06:59:10;20.70;99.90
34558;DHT22;24708;48.888;8.736;2022-09-09T07:01:40;21.50;99.90
34558;DHT22;24708;48.888;8.736;2022-09-09T07:04:08;22.20;99.90
34558;DHT22;24708;48.888;8.736;2022-09-09T07:06:38;22.80;99.90
34558;DHT22;24708;48.888;8.736;2022-09-09T07:09:08;21.90;99.90
34558;DHT22;24708;48.888;8.736;2022-09-09T07:11:39;22.20;99.90
34558;DHT22;24708;48.888;8.736;2022-09-09T07:14:06;22.40;99.90
34558;DHT22;24708;48.888;8.736;2022-09-09T07:16:35;23.00;99.90
34558;DHT22;24708;48.888;8.736;2022-09-09T07:19:04;23.00;99.90
34558;DHT22;24708;48.888;8.736;2022-09-09T07:21:32;23.50;99.90
34558;DHT22;24708;48.888;8.736;2022-09-09T07:24:00;24.50;99.90
34558;DHT22;24708;48.888;8.736;2022-09-09T07:26:30;25.50;99.90
34558;DHT22;24708;48.888;8.736;2022-09-09T07:28:58;25.50;99.90
34558;DHT22;24708;48.888;8.736;2022-09-09T07:31:27;25.80;99.90
34558;DHT22;24708;48.888;8.736;2022-09-09T07:33:57;24.10;99.90
34558;DHT22;24708;48.888;8.736;2022-09-09T07:36:27;23.70;99.90
34558;DHT22;24708;48.888;8.736;2022-09-09T07:39:02;23.20;99.90
34558;DHT22;24708;48.888;8.736;2022-09-09T07:41:36;22.10;99.90
34558;DHT22;24708;48.888;8.736;2022-09-09T07:44:07;22.10;99.90
34558;DHT22;24708;48.888;8.736;2022-09-09T07:46:35;22.90;99.90
34558;DHT22;24708;48.888;8.736;2022-09-09T07:49:03;22.90;99.90
34558;DHT22;24708;48.888;8.736;2022-09-09T07:51:32;23.50;99.90
34558;DHT22;24708;48.888;8.736;2022-09-09T07:54:03;25.20;99.90
34558;DHT22;24708;48.888;8.736;2022-09-09T07:56:32;26.20;98.90
34558;DHT22;24708;48.888;8.736;2022-09-09T07:58:59;26.10;98.70
34558;DHT22;24708;48.888;8.736;2022-09-09T08:01:31;26.70;97.40
34558;DHT22;24708;48.888;8.736;2022-09-09T08:04:02;27.10;97.10
34558;DHT22;24708;48.888;8.736;2022-09-09T08:06:35;26.80;97.30
34558;DHT22;24708;48.888;8.736;2022-09-09T08:09:04;27.40;96.00
34558;DHT22;24708;48.888;8.736;2022-09-09T08:11:32;27.70;95.70
34558;DHT22;24708;48.888;8.736;2022-09-09T08:14:06;27.80;94.40
34558;DHT22;24708;48.888;8.736;2022-09-09T08:16:39;26.50;95.30
34558;DHT22;24708;48.888;8.736;2022-09-09T08:19:07;25.00;96.50
34558;DHT22;24708;48.888;8.736;2022-09-09T08:21:37;23.80;98.60
34558;DHT22;24708;48.888;8.736;2022-09-09T08:24:08;22.80;99.60
34558;DHT22;24708;48.888;8.736;2022-09-09T08:26:40;22.20;99.90
34558;DHT22;24708;48.888;8.736;2022-09-09T08:29:10;22.20;99.90
34558;DHT22;24708;48.888;8.736;2022-09-09T08:31:41;23.90;99.30
34558;DHT22;24708;48.888;8.736;2022-09-09T08:34:10;25.60;97.70
34558;DHT22;24708;48.888;8.736;2022-09-09T08:36:40;26.60;95.50
34558;DHT22;24708;48.888;8.736;2022-09-09T08:39:11;27.10;94.60
34558;DHT22;24708;48.888;8.736;2022-09-09T08:41:57;27.70;94.20
34558;DHT22;24708;48.888;8.736;2022-09-09T08:45:14;28.20;93.60
34558;DHT22;24708;48.888;8.736;2022-09-09T08:47:52;27.80;91.90
34558;DHT22;24708;48.888;8.736;2022-09-09T08:50:37;27.00;92.70
34558;DHT22;24708;48.888;8.736;2022-09-09T08:53:16;28.20;93.60
34558;DHT22;24708;48.888;8.736;2022-09-09T08:58:26;28.90;91.90
34558;DHT22;24708;48.888;8.736;2022-09-09T09:01:18;26.50;90.80
34558;DHT22;24708;48.888;8.736;2022-09-09T09:07:08;25.10;94.30
34558;DHT22;24708;48.888;8.736;2022-09-09T09:10:02;25.50;94.50
34558;DHT22;24708;48.888;8.736;2022-09-09T09:12:51;25.50;94.40
34558;DHT22;24708;48.888;8.736;2022-09-09T09:15:23;25.30;94.50
34558;DHT22;24708;48.888;8.736;2022-09-09T09:17:56;24.70;94.90
34558;DHT22;24708;48.888;8.736;2022-09-09T09:20:39;23.90;96.00
34558;DHT22;24708;48.888;8.736;2022-09-09T09:23:15;23.30;96.30
34558;DHT22;24708;48.888;8.736;2022-09-09T09:25:46;22.60;96.90
34558;DHT22;24708;48.888;8.736;2022-09-09T09:28:25;22.00;97.00
34558;DHT22;24708;48.888;8.736;2022-09-09T09:30:57;21.70;97.30
34558;DHT22;24708;48.888;8.736;2022-09-09T09:33:47;21.40;98.60
34558;DHT22;24708;48.888;8.736;2022-09-09T09:36:16;21.20;99.20
34558;DHT22;24708;48.888;8.736;2022-09-09T09:38:55;21.00;99.30
34558;DHT22;24708;48.888;8.736;2022-09-09T09:41:42;20.80;99.80
34558;DHT22;24708;48.888;8.736;2022-09-09T09:44:27;20.40;99.90
34558;DHT22;24708;48.888;8.736;2022-09-09T09:49:39;21.60;99.90
34558;DHT22;24708;48.888;8.736;2022-09-09T09:52:22;23.50;98.70
34558;DHT22;24708;48.888;8.736;2022-09-09T09:54:50;24.70;97.30
34558;DHT22;24708;48.888;8.736;2022-09-09T09:57:24;26.00;95.00
34558;DHT22;24708;48.888;8.736;2022-09-09T10:00:21;26.00;93.70
34558;DHT22;24708;48.888;8.736;2022-09-09T10:02:50;25.60;92.90
34558;DHT22;24708;48.888;8.736;2022-09-09T10:05:23;25.30;92.50
34558;DHT22;24708;48.888;8.736;2022-09-09T10:08:14;25.00;93.50
34558;DHT22;24708;48.888;8.736;2022-09-09T10:19:16;27.30;89.00
34558;DHT22;24708;48.888;8.736;2022-09-09T10:22:39;26.00;89.80
34558;DHT22;24708;48.888;8.736;2022-09-09T10:25:22;25.00;90.60
34558;DHT22;24708;48.888;8.736;2022-09-09T10:31:18;22.20;95.10
34558;DHT22;24708;48.888;8.736;2022-09-09T10:34:18;21.50;97.20
34558;DHT22;24708;48.888;8.736;2022-09-09T10:36:49;20.30;99.80
34558;DHT22;24708;48.888;8.736;2022-09-09T10:39:34;19.80;99.90
34558;DHT22;24708;48.888;8.736;2022-09-09T10:42:12;19.60;99.90
34558;DHT22;24708;48.888;8.736;2022-09-09T10:45:06;19.70;99.90
34558;DHT22;24708;48.888;8.736;2022-09-09T10:48:05;20.00;99.90
34558;DHT22;24708;48.888;8.736;2022-09-09T10:51:05;19.90;99.90
34558;DHT22;24708;48.888;8.736;2022-09-09T10:56:53;19.30;99.90
34558;DHT22;24708;48.888;8.736;2022-09-09T10:59:28;18.90;99.90
34558;DHT22;24708;48.888;8.736;2022-09-09T11:02:02;18.50;99.90
34558;DHT22;24708;48.888;8.736;2022-09-09T11:04:46;18.50;99.90
34558;DHT22;24708;48.888;8.736;2022-09-09T11:07:27;18.20;99.90
34558;DHT22;24708;48.888;8.736;2022-09-09T11:10:01;18.10;99.90
34558;DHT22;24708;48.888;8.736;2022-09-09T11:12:31;18.10;99.90
34558;DHT22;24708;48.888;8.736;2022-09-09T11:15:16;17.80;99.90
34558;DHT22;24708;48.888;8.736;2022-09-09T11:17:49;17.70;99.90
34558;DHT22;24708;48.888;8.736;2022-09-09T11:20:17;17.40;99.90
34558;DHT22;24708;48.888;8.736;2022-09-09T11:23:05;17.30;99.90
34558;DHT22;24708;48.888;8.736;2022-09-09T11:25:40;17.20;99.90
34558;DHT22;24708;48.888;8.736;2022-09-09T11:28:32;17.00;99.90
34558;DHT22;24708;48.888;8.736;2022-09-09T11:31:32;17.00;99.90
34558;DHT22;24708;48.888;8.736;2022-09-09T11:34:27;16.90;99.90
34558;DHT22;24708;48.888;8.736;2022-09-09T11:37:35;16.90;99.90
34558;DHT22;24708;48.888;8.736;2022-09-09T11:40:17;17.10;99.90
34558;DHT22;24708;48.888;8.736;2022-09-09T11:42:47;17.10;99.90
34558;DHT22;24708;48.888;8.736;2022-09-09T11:48:00;17.50;99.90
34558;DHT22;24708;48.888;8.736;2022-09-09T11:50:30;17.90;99.90
34558;DHT22;24708;48.888;8.736;2022-09-09T11:58:54;18.10;99.90
34558;DHT22;24708;48.888;8.736;2022-09-09T12:01:43;19.50;99.90
34558;DHT22;24708;48.888;8.736;2022-09-09T12:07:23;19.90;99.90
34558;DHT22;24708;48.888;8.736;2022-09-09T12:09:59;20.00;99.90
34558;DHT22;24708;48.888;8.736;2022-09-09T12:12:33;20.10;99.90
34558;DHT22;24708;48.888;8.736;2022-09-09T12:17:50;20.30;99.90
34558;DHT22;24708;48.888;8.736;2022-09-09T12:20:23;20.30;99.90
34558;DHT22;24708;48.888;8.736;2022-09-09T12:23:06;20.60;99.90
34558;DHT22;24708;48.888;8.736;2022-09-09T12:34:38;21.10;99.90
34558;DHT22;24708;48.888;8.736;2022-09-09T12:37:46;21.40;99.90
34558;DHT22;24708;48.888;8.736;2022-09-09T12:40:04;21.20;99.90
34558;DHT22;24708;48.888;8.736;2022-09-09T12:42:33;21.30;99.90
34558;DHT22;24708;48.888;8.736;2022-09-09T12:45:17;21.30;99.90
34558;DHT22;24708;48.888;8.736;2022-09-09T12:47:51;21.40;99.90
34558;DHT22;24708;48.888;8.736;2022-09-09T12:50:26;21.40;99.90
34558;DHT22;24708;48.888;8.736;2022-09-09T12:52:57;21.30;99.90
34558;DHT22;24708;48.888;8.736;2022-09-09T12:55:30;21.20;99.90
34558;DHT22;24708;48.888;8.736;2022-09-09T12:57:58;21.30;99.90
34558;DHT22;24708;48.888;8.736;2022-09-09T13:00:27;21.50;99.90
34558;DHT22;24708;48.888;8.736;2022-09-09T13:02:57;21.40;99.90
34558;DHT22;24708;48.888;8.736;2022-09-09T13:05:31;21.30;99.90
34558;DHT22;24708;48.888;8.736;2022-09-09T13:08:02;21.40;99.90
34558;DHT22;24708;48.888;8.736;2022-09-09T13:10:35;21.50;99.90
34558;DHT22;24708;48.888;8.736;2022-09-09T13:13:23;21.50;99.90
34558;DHT22;24708;48.888;8.736;2022-09-09T13:15:56;21.40;99.90
34558;DHT22;24708;48.888;8.736;2022-09-09T13:18:28;21.20;99.90
34558;DHT22;24708;48.888;8.736;2022-09-09T13:20:57;21.50;99.90
34558;DHT22;24708;48.888;8.736;2022-09-09T13:23:30;21.80;99.90
34558;DHT22;24708;48.888;8.736;2022-09-09T13:26:00;22.10;99.90
34558;DHT22;24708;48.888;8.736;2022-09-09T13:28:30;22.10;99.90
34558;DHT22;24708;48.888;8.736;2022-09-09T13:31:03;21.80;99.80
34558;DHT22;24708;48.888;8.736;2022-09-09T13:33:36;21.90;99.90
34558;DHT22;24708;48.888;8.736;2022-09-09T13:36:07;21.90;99.90
34558;DHT22;24708;48.888;8.736;2022-09-09T13:38:40;21.80;99.90
34558;DHT22;24708;48.888;8.736;2022-09-09T13:41:08;21.80;99.90
34558;DHT22;24708;48.888;8.736;2022-09-09T13:43:41;21.80;99.90
34558;DHT22;24708;48.888;8.736;2022-09-09T13:46:34;21.70;99.90
34558;DHT22;24708;48.888;8.736;2022-09-09T13:49:19;21.80;99.90
34558;DHT22;24708;48.888;8.736;2022-09-09T13:51:50;21.70;99.90
34558;DHT22;24708;48.888;8.736;2022-09-09T13:54:20;21.60;99.90
34558;DHT22;24708;48.888;8.736;2022-09-09T13:56:48;21.70;99.90
34558;DHT22;24708;48.888;8.736;2022-09-09T13:59:18;21.60;99.70
34558;DHT22;24708;48.888;8.736;2022-09-09T14:01:48;21.50;99.90
34558;DHT22;24708;48.888;8.736;2022-09-09T14:04:17;21.40;99.90
34558;DHT22;24708;48.888;8.736;2022-09-09T14:06:44;21.30;99.90
34558;DHT22;24708;48.888;8.736;2022-09-09T14:09:13;21.10;99.90
34558;DHT22;24708;48.888;8.736;2022-09-09T14:11:40;21.10;99.90
34558;DHT22;24708;48.888;8.736;2022-09-09T14:14:08;21.30;99.90
34558;DHT22;24708;48.888;8.736;2022-09-09T14:16:35;21.40;99.90
34558;DHT22;24708;48.888;8.736;2022-09-09T14:19:03;21.50;98.90
34558;DHT22;24708;48.888;8.736;2022-09-09T14:21:30;21.60;98.20
34558;DHT22;24708;48.888;8.736;2022-09-09T14:23:58;21.40;99.50
34558;DHT22;24708;48.888;8.736;2022-09-09T14:26:25;21.40;99.90
34558;DHT22;24708;48.888;8.736;2022-09-09T14:28:53;21.40;99.80
34558;DHT22;24708;48.888;8.736;2022-09-09T14:31:23;21.40;99.50
34558;DHT22;24708;48.888;8.736;2022-09-09T14:33:51;21.60;98.20
34558;DHT22;24708;48.888;8.736;2022-09-09T14:36:18;21.60;98.20
34558;DHT22;24708;48.888;8.736;2022-09-09T14:38:46;21.50;98.00
34558;DHT22;24708;48.888;8.736;2022-09-09T14:41:15;21.60;99.10
34558;DHT22;24708;48.888;8.736;2022-09-09T14:43:45;21.70;99.30
34558;DHT22;24708;48.888;8.736;2022-09-09T14:46:15;22.00;98.70
34558;DHT22;24708;48.888;8.736;2022-09-09T14:48:43;22.40;97.70
34558;DHT22;24708;48.888;8.736;2022-09-09T14:51:13;22.60;97.80
34558;DHT22;24708;48.888;8.736;2022-09-09T14:53:43;22.70;96.50
34558;DHT22;24708;48.888;8.736;2022-09-09T14:56:14;22.90;97.40
34558;DHT22;24708;48.888;8.736;2022-09-09T14:58:42;23.00;97.40
34558;DHT22;24708;48.888;8.736;2022-09-09T15:01:12;23.00;96.50
34558;DHT22;24708;48.888;8.736;2022-09-09T15:03:42;23.00;97.20
34558;DHT22;24708;48.888;8.736;2022-09-09T15:06:12;23.10;96.60
34558;DHT22;24708;48.888;8.736;2022-09-09T15:08:42;23.00;96.30
34558;DHT22;24708;48.888;8.736;2022-09-09T15:11:11;22.90;96.50
34558;DHT22;24708;48.888;8.736;2022-09-09T15:13:40;22.90;97.20
34558;DHT22;24708;48.888;8.736;2022-09-09T15:16:11;22.80;97.30
34558;DHT22;24708;48.888;8.736;2022-09-09T15:18:40;22.60;97.90
34558;DHT22;24708;48.888;8.736;2022-09-09T15:21:15;22.40;98.00
34558;DHT22;24708;48.888;8.736;2022-09-09T15:23:43;21.90;98.60
34558;DHT22;24708;48.888;8.736;2022-09-09T15:26:11;21.60;98.70
34558;DHT22;24708;48.888;8.736;2022-09-09T15:28:42;21.40;99.00
34558;DHT22;24708;48.888;8.736;2022-09-09T15:31:16;21.00;99.20
34558;DHT22;24708;48.888;8.736;2022-09-09T15:33:51;20.80;99.90
34558;DHT22;24708;48.888;8.736;2022-09-09T15:36:24;20.70;99.90
34558;DHT22;24708;48.888;8.736;2022-09-09T15:38:52;20.60;99.90
34558;DHT22;24708;48.888;8.736;2022-09-09T15:41:21;20.50;99.90
34558;DHT22;24708;48.888;8.736;2022-09-09T15:43:51;20.40;99.90
34558;DHT22;24708;48.888;8.736;2022-09-09T15:46:26;20.20;99.90
34558;DHT22;24708;48.888;8.736;2022-09-09T15:48:56;19.80;99.90
34558;DHT22;24708;48.888;8.736;2022-09-09T15:51:25;19.50;99.90
34558;DHT22;24708;48.888;8.736;2022-09-09T15:54:14;19.10;99.90
34558;DHT22;24708;48.888;8.736;2022-09-09T15:56:44;18.20;99.90
34558;DHT22;24708;48.888;8.736;2022-09-09T15:59:12;17.60;99.90
